Time;durP1;ratioP1;P1;durP2;ratioP2;P2;SDS_P1;SDS_P2;PMS_P1;PMS_P2;Temp;Humidity;BMP_temperature;BMP_pressure;BME280_temperature;BME280_humidity;BME280_pressure;Samples;Min_cycle;Max_cycle;Signal;HPM_P1;HPM_P2
2021/10/10 00:01:00;;;;;;;7.22;3.70;;;;;;;9.91;86.51;102369.72;5051716;28;20709;-65
2021/10/10 00:03:25;;;;;;;5.47;3.05;;;;;;;9.86;86.52;102369.06;5048814;28;20059;-65
2021/10/10 00:05:51;;;;;;;10.63;3.55;;;;;;;9.84;86.40;102365.88;5052254;28;20025;-65
2021/10/10 00:08:16;;;;;;;8.07;3.30;;;;;;;9.75;86.56;102363.16;5051158;28;20051;-65
2021/10/10 00:10:42;;;;;;;6.75;2.80;;;;;;;9.65;87.54;102367.97;5053034;28;20061;-64
2021/10/10 00:13:07;;;;;;;9.10;3.42;;;;;;;9.65;87.29;102368.78;5050516;28;20033;-64
2021/10/10 00:15:33;;;;;;;6.18;3.03;;;;;;;9.65;86.94;102365.28;5052020;28;20040;-64
2021/10/10 00:17:58;;;;;;;7.82;3.60;;;;;;;9.59;87.77;102364.63;5052146;28;20489;-64
2021/10/10 00:20:24;;;;;;;8.65;3.85;;;;;;;9.60;87.84;102360.81;5043134;28;20402;-65
2021/10/10 00:22:49;;;;;;;5.10;3.00;;;;;;;9.52;87.94;102358.09;5051696;28;20036;-65
2021/10/10 00:25:14;;;;;;;11.27;3.55;;;;;;;9.52;87.36;102363.47;5044157;28;20051;-65
2021/10/10 00:27:40;;;;;;;8.80;3.17;;;;;;;9.51;88.07;102362.66;5050268;28;20064;-65
2021/10/10 00:30:08;;;;;;;9.05;3.90;;;;;;;9.47;87.98;102360.88;5044309;28;20033;-65
2021/10/10 00:32:34;;;;;;;6.78;3.15;;;;;;;9.35;87.88;102358.72;5051980;28;20602;-64
2021/10/10 00:35:00;;;;;;;7.47;3.50;;;;;;;9.47;87.97;102355.50;5051036;28;20044;-64
2021/10/10 00:37:25;;;;;;;8.38;3.28;;;;;;;9.47;87.54;102352.81;5047803;28;20616;-65
2021/10/10 00:39:52;;;;;;;6.47;3.22;;;;;;;9.39;88.45;102353.56;5050182;28;20025;-65
2021/10/10 00:42:17;;;;;;;8.40;3.30;;;;;;;9.47;88.06;102350.91;5051395;28;20044;-64
2021/10/10 00:44:45;;;;;;;7.45;3.40;;;;;;;9.42;87.79;102355.63;5051572;28;20032;-64
2021/10/10 00:47:12;;;;;;;6.57;3.35;;;;;;;9.41;88.13;102345.94;5049109;28;20044;-64
2021/10/10 00:49:38;;;;;;;6.65;3.35;;;;;;;9.24;88.37;102346.63;5048517;28;20025;-65
2021/10/10 00:52:05;;;;;;;7.22;3.53;;;;;;;9.28;88.44;102346.81;5051793;28;20393;-65
2021/10/10 00:54:31;;;;;;;7.47;3.70;;;;;;;9.23;88.61;102345.03;5051073;28;20032;-65
2021/10/10 00:56:58;;;;;;;6.38;3.63;;;;;;;9.21;88.42;102343.75;5051919;28;20035;-65
2021/10/10 00:59:24;;;;;;;7.45;3.28;;;;;;;9.19;88.08;102351.31;5048418;28;20095;-65
2021/10/10 01:01:50;;;;;;;7.90;3.60;;;;;;;9.08;88.57;102342.66;5051089;28;20037;-65
2021/10/10 01:04:16;;;;;;;7.97;3.67;;;;;;;9.12;88.66;102337.50;5047355;28;20059;-64
2021/10/10 01:06:42;;;;;;;7.53;3.33;;;;;;;9.11;89.18;102342.09;5050800;28;20094;-65
2021/10/10 01:09:08;;;;;;;7.90;3.42;;;;;;;9.14;88.31;102332.63;5049979;28;20036;-65
2021/10/10 01:11:34;;;;;;;7.88;3.42;;;;;;;9.23;88.58;102341.56;5051099;28;20393;-64
2021/10/10 01:14:01;;;;;;;9.07;3.40;;;;;;;9.17;88.34;102340.88;5048682;28;20044;-65
2021/10/10 01:16:27;;;;;;;8.43;3.95;;;;;;;9.14;88.01;102338.00;5051002;28;20037;-65
2021/10/10 01:18:58;;;;;;;7.10;3.13;;;;;;;9.10;88.17;102332.41;5050767;28;20088;-64
2021/10/10 01:21:23;;;;;;;;;;;;;;;9.08;88.77;102329.22;5048997;28;20383;-64
2021/10/10 01:23:49;;;;;;;5.40;2.88;;;;;;;9.00;88.48;102329.97;5051236;28;19921;-65
2021/10/10 01:26:15;;;;;;;6.47;3.33;;;;;;;9.04;88.92;102320.19;5049939;28;20067;-65
2021/10/10 01:28:41;;;;;;;6.50;3.47;;;;;;;8.80;88.79;102325.03;5049816;28;20029;-64
2021/10/10 01:31:06;;;;;;;9.82;3.63;;;;;;;8.72;89.67;102318.47;5049935;28;20500;-65
2021/10/10 01:33:33;;;;;;;8.27;3.30;;;;;;;8.81;89.46;102327.41;5047074;28;20104;-65
2021/10/10 01:35:59;;;;;;;7.32;3.28;;;;;;;8.80;89.21;102323.16;5050719;28;20116;-66
2021/10/10 01:38:24;;;;;;;10.65;3.72;;;;;;;8.83;89.04;102324.41;5049828;28;20037;-65
2021/10/10 01:40:50;;;;;;;5.55;3.40;;;;;;;8.70;89.53;102323.34;5050421;28;20087;-65
2021/10/10 01:43:15;;;;;;;7.05;3.30;;;;;;;8.70;89.38;102315.31;5050951;28;20036;-65
2021/10/10 01:45:41;;;;;;;8.00;3.63;;;;;;;8.65;89.89;102306.56;5047686;28;20490;-65
2021/10/10 01:48:06;;;;;;;7.07;3.72;;;;;;;8.56;90.18;102309.16;5043507;28;20033;-65
2021/10/10 01:50:34;;;;;;;6.63;3.13;;;;;;;8.53;90.51;102309.75;5050704;28;20024;-65
2021/10/10 01:52:59;;;;;;;6.47;3.20;;;;;;;8.62;90.13;102304.47;5046165;28;20048;-65
2021/10/10 01:55:25;;;;;;;6.35;3.15;;;;;;;8.69;89.69;102308.31;5050505;28;20036;-64
2021/10/10 01:57:50;;;;;;;6.25;3.30;;;;;;;8.64;89.59;102308.44;5049660;28;20078;-65
2021/10/10 02:00:16;;;;;;;9.05;3.75;;;;;;;8.44;89.92;102306.16;5049836;28;20043;-65
2021/10/10 02:02:42;;;;;;;8.27;3.67;;;;;;;8.35;90.76;102299.91;5050781;28;20036;-65
2021/10/10 02:05:08;;;;;;;5.32;2.90;;;;;;;8.33;90.48;102310.16;5049831;28;20036;-65
2021/10/10 02:07:34;;;;;;;7.50;3.80;;;;;;;8.39;90.37;102300.91;5047972;28;20029;-65
2021/10/10 02:10:00;;;;;;;7.22;3.17;;;;;;;8.42;90.71;102297.63;5050328;28;20124;-67
2021/10/10 02:12:25;;;;;;;7.13;3.70;;;;;;;8.42;90.88;102297.63;5050880;28;20067;-66
2021/10/10 02:14:51;;;;;;;7.47;3.17;;;;;;;8.34;90.85;102295.66;5049656;28;20112;-64
2021/10/10 02:17:16;;;;;;;8.68;3.30;;;;;;;8.34;90.21;102282.22;5050448;28;20136;-65
2021/10/10 02:19:42;;;;;;;8.27;3.25;;;;;;;8.33;90.29;102282.50;5045866;28;20044;-66
2021/10/10 02:22:08;;;;;;;7.53;3.47;;;;;;;8.23;90.65;102285.38;5047929;28;20033;-66
2021/10/10 02:24:34;;;;;;;8.25;3.30;;;;;;;8.27;90.39;102289.88;5047965;28;20052;-66
2021/10/10 02:27:00;;;;;;;5.65;2.83;;;;;;;8.23;90.73;102294.22;5049816;28;20052;-64
2021/10/10 02:29:26;;;;;;;7.28;3.55;;;;;;;8.11;90.47;102281.28;5049409;28;20444;-65
2021/10/10 02:31:52;;;;;;;7.35;3.58;;;;;;;8.15;90.67;102286.84;5049806;28;20438;-62
2021/10/10 02:34:18;;;;;;;6.22;2.85;;;;;;;8.13;91.37;102283.66;5047355;28;20040;-66
2021/10/10 02:36:45;;;;;;;6.78;3.08;;;;;;;8.07;91.09;102277.59;5033543;28;20147;-66
2021/10/10 02:39:11;;;;;;;8.98;3.78;;;;;;;8.10;91.39;102276.22;5043372;28;20123;-67
2021/10/10 02:41:37;;;;;;;7.25;3.55;;;;;;;8.12;90.82;102279.41;5050696;28;20124;-66
2021/10/10 02:44:02;;;;;;;6.50;3.65;;;;;;;8.15;90.83;102279.59;5047766;28;20036;-66
2021/10/10 02:46:28;;;;;;;8.25;3.35;;;;;;;8.01;90.76;102281.47;5047795;28;20155;-65
2021/10/10 02:48:54;;;;;;;8.80;4.07;;;;;;;7.75;91.64;102272.31;5047702;28;20041;-64
2021/10/10 02:51:20;;;;;;;5.22;3.10;;;;;;;7.67;92.24;102275.66;5046221;28;20067;-66
2021/10/10 02:53:45;;;;;;;7.88;3.55;;;;;;;7.77;91.67;102274.69;5049978;28;20112;-66
2021/10/10 02:56:10;;;;;;;5.97;2.90;;;;;;;7.80;91.81;102277.56;5049324;28;20040;-66
2021/10/10 02:58:36;;;;;;;7.63;3.67;;;;;;;7.82;91.88;102279.97;5048554;28;20044;-65
2021/10/10 03:01:02;;;;;;;8.13;3.40;;;;;;;7.84;91.90;102265.16;5050078;28;20036;-66
2021/10/10 03:03:28;;;;;;;9.52;3.55;;;;;;;7.78;92.14;102270.94;5047197;28;20482;-66
2021/10/10 03:05:53;;;;;;;10.60;3.88;;;;;;;7.71;92.29;102271.31;5049693;28;20044;-66
2021/10/10 03:08:19;;;;;;;8.10;3.58;;;;;;;7.75;92.68;102263.47;5044773;28;20068;-62
2021/10/10 03:10:44;;;;;;;8.65;3.95;;;;;;;7.82;92.01;102267.34;5045298;28;20032;-66
2021/10/10 03:13:10;;;;;;;9.05;4.10;;;;;;;7.80;92.29;102263.41;5049488;28;20115;-66
2021/10/10 03:15:38;;;;;;;7.03;3.55;;;;;;;7.73;92.69;102263.78;5049479;28;20110;-66
2021/10/10 03:18:03;;;;;;;7.43;3.67;;;;;;;7.77;92.21;102258.59;5042675;28;20047;-66
2021/10/10 03:20:29;;;;;;;6.93;3.15;;;;;;;7.70;92.46;102260.88;5049007;28;20025;-65
2021/10/10 03:22:54;;;;;;;7.75;3.22;;;;;;;7.67;92.23;102256.09;5049518;28;20037;-64
2021/10/10 03:25:20;;;;;;;8.13;3.65;;;;;;;7.66;92.66;102260.69;5046248;28;20037;-65
2021/10/10 03:27:45;;;;;;;7.45;3.65;;;;;;;7.73;92.15;102262.97;5049044;28;20029;-65
2021/10/10 03:30:11;;;;;;;6.85;3.47;;;;;;;7.59;92.24;102262.16;5049626;28;20041;-66
2021/10/10 03:32:36;;;;;;;9.10;3.97;;;;;;;7.56;92.23;102260.88;5051764;28;20087;-66
2021/10/10 03:35:03;;;;;;;11.13;4.57;;;;;;;7.50;92.22;102264.72;5053298;28;20136;-65
2021/10/10 03:37:28;;;;;;;10.18;3.72;;;;;;;7.38;92.81;102255.53;5050458;28;20030;-65
2021/10/10 03:39:55;;;;;;;8.27;3.78;;;;;;;7.39;92.89;102257.13;5052567;28;20063;-65
2021/10/10 03:42:20;;;;;;;7.22;3.22;;;;;;;7.35;92.68;102256.13;5052282;28;20065;-65
2021/10/10 03:44:46;;;;;;;8.93;3.60;;;;;;;7.28;92.90;102262.66;5053278;28;20087;-66
2021/10/10 03:47:14;;;;;;;10.65;4.00;;;;;;;7.14;93.43;102266.38;5049578;28;20037;-66
2021/10/10 03:49:40;;;;;;;10.98;3.85;;;;;;;6.98;94.18;102257.78;5050575;28;20029;-65
2021/10/10 03:52:06;;;;;;;7.72;4.13;;;;;;;6.89;94.80;102254.16;5053320;28;20134;-64
2021/10/10 03:57:21;;;;;;;7.50;3.90;;;;;;;7.01;94.73;102251.84;5046022;28;20041;-64
2021/10/10 03:59:49;;;;;;;9.77;3.95;;;;;;;7.06;94.71;102249.09;5052111;28;20044;-64
2021/10/10 04:02:14;;;;;;;8.88;3.97;;;;;;;7.02;94.75;102248.09;5052718;28;20051;-64
2021/10/10 04:04:40;;;;;;;7.00;3.67;;;;;;;7.11;94.15;102246.31;5052114;28;20037;-64
2021/10/10 04:07:05;;;;;;;9.30;3.97;;;;;;;7.06;94.12;102243.75;5053302;28;20043;-65
2021/10/10 04:09:31;;;;;;;6.00;3.30;;;;;;;7.09;93.97;102236.97;5051199;28;20116;-65
2021/10/10 04:11:56;;;;;;;6.88;3.05;;;;;;;7.19;93.75;102243.00;5050040;28;20462;-65
2021/10/10 04:14:22;;;;;;;6.70;3.63;;;;;;;7.23;93.67;102238.63;5041685;28;20029;-65
2021/10/10 04:16:47;;;;;;;10.98;4.22;;;;;;;7.29;93.29;102240.16;5052387;28;20032;-65
2021/10/10 04:19:12;;;;;;;6.72;3.60;;;;;;;7.27;93.33;102234.28;5050732;28;20049;-66
2021/10/10 04:21:38;;;;;;;6.53;3.45;;;;;;;7.13;93.49;102233.44;5051809;28;20087;-64
2021/10/10 04:24:03;;;;;;;6.68;3.70;;;;;;;7.14;93.73;102221.63;5050331;28;20168;-64
2021/10/10 04:26:29;;;;;;;7.60;3.40;;;;;;;7.14;93.89;102212.81;5051864;28;20028;-64
2021/10/10 04:28:54;;;;;;;6.88;3.38;;;;;;;7.11;94.01;102216.88;5045051;28;20064;-65
2021/10/10 04:31:20;;;;;;;10.13;3.65;;;;;;;7.08;93.69;102220.09;5048002;28;20033;-63
2021/10/10 04:33:45;;;;;;;7.35;4.03;;;;;;;6.94;94.08;102213.13;5051159;28;20037;-64
2021/10/10 04:36:11;;;;;;;7.43;3.80;;;;;;;6.92;94.27;102216.09;5049726;28;20601;-64
2021/10/10 04:38:36;;;;;;;10.05;4.07;;;;;;;6.81;94.60;102211.19;5050519;28;20040;-63
2021/10/10 04:41:02;;;;;;;8.15;3.65;;;;;;;6.90;94.19;102206.75;5050566;28;20039;-65
2021/10/10 04:43:27;;;;;;;8.30;4.13;;;;;;;6.86;94.31;102203.06;5042728;28;20061;-63
2021/10/10 04:45:53;;;;;;;8.93;3.92;;;;;;;6.92;94.38;102199.22;5051361;28;20037;-64
2021/10/10 04:48:19;;;;;;;7.70;3.65;;;;;;;6.96;94.25;102208.28;5048035;28;20140;-63
2021/10/10 04:50:44;;;;;;;11.10;3.83;;;;;;;6.88;94.04;102196.34;5051486;28;20465;-63
2021/10/10 04:53:09;;;;;;;9.05;3.70;;;;;;;6.85;94.17;102194.22;5052031;28;20029;-64
2021/10/10 04:55:35;;;;;;;7.88;3.88;;;;;;;6.84;94.12;102198.00;5051132;28;20394;-64
2021/10/10 04:58:01;;;;;;;9.00;3.92;;;;;;;6.78;94.38;102191.13;5050588;28;20045;-65
2021/10/10 05:00:27;;;;;;;11.80;3.95;;;;;;;6.82;94.33;102194.03;5047116;28;20033;-64
2021/10/10 05:02:53;;;;;;;8.25;3.90;;;;;;;6.81;93.82;102187.91;5049725;28;20044;-65
2021/10/10 05:05:19;;;;;;;9.35;4.18;;;;;;;6.86;93.82;102189.69;5050848;28;20032;-65
2021/10/10 05:07:44;;;;;;;9.55;4.03;;;;;;;6.78;93.94;102179.63;5050284;28;20412;-65
2021/10/10 05:10:10;;;;;;;6.57;3.65;;;;;;;6.74;93.95;102183.97;5051320;28;20029;-64
2021/10/10 05:12:36;;;;;;;10.38;3.90;;;;;;;6.77;93.66;102176.19;5048615;28;20472;-64
2021/10/10 05:15:03;;;;;;;11.90;4.38;;;;;;;6.77;93.62;102194.91;5050414;28;20025;-63
2021/10/10 05:17:28;;;;;;;9.23;3.83;;;;;;;6.67;93.75;102188.91;5051140;28;20087;-64
2021/10/10 05:19:54;;;;;;;6.03;3.33;;;;;;;6.70;93.92;102177.59;5050130;28;20068;-64
2021/10/10 05:22:19;;;;;;;10.13;3.25;;;;;;;6.77;93.54;102183.41;5047720;28;20067;-63
2021/10/10 05:24:45;;;;;;;7.10;3.75;;;;;;;6.79;93.36;102179.34;5051639;28;20064;-63
2021/10/10 05:27:10;;;;;;;7.72;3.58;;;;;;;6.76;93.71;102187.16;5051445;28;20127;-64
2021/10/10 05:29:36;;;;;;;8.70;3.90;;;;;;;6.61;93.89;102190.06;5049085;28;20418;-64
2021/10/10 05:32:01;;;;;;;8.65;3.72;;;;;;;6.53;93.82;102188.84;5043349;28;20091;-63
2021/10/10 05:34:27;;;;;;;6.88;3.55;;;;;;;6.60;93.85;102186.56;5049339;28;20099;-63
2021/10/10 05:36:54;;;;;;;9.52;3.92;;;;;;;6.62;93.48;102175.59;5044686;28;20091;-64
2021/10/10 05:39:21;;;;;;;8.07;3.92;;;;;;;6.60;93.89;102186.56;5040815;28;20072;-65
2021/10/10 05:41:46;;;;;;;7.47;3.63;;;;;;;6.56;93.89;102177.56;5044447;28;20039;-64
2021/10/10 05:44:12;;;;;;;6.60;3.72;;;;;;;6.49;93.83;102177.13;5047380;28;20036;-65
2021/10/10 05:46:37;;;;;;;10.77;4.50;;;;;;;6.43;94.20;102180.94;5049045;28;20029;-64
2021/10/10 05:49:03;;;;;;;10.27;4.43;;;;;;;6.41;93.73;102176.97;5047065;28;20454;-64
2021/10/10 05:51:28;;;;;;;9.45;3.70;;;;;;;6.43;94.35;102177.50;5046877;28;20029;-63
2021/10/10 05:53:54;;;;;;;8.88;3.42;;;;;;;6.46;93.88;102169.69;5048537;28;20662;-65
2021/10/10 05:56:20;;;;;;;9.15;3.65;;;;;;;6.51;94.00;102171.47;5048717;28;20032;-63
2021/10/10 05:58:50;;;;;;;8.55;3.92;;;;;;;6.54;93.60;102157.53;5045805;28;20098;-62
2021/10/10 06:01:16;;;;;;;12.18;4.90;;;;;;;6.54;93.98;102165.56;5046209;28;20390;-63
2021/10/10 06:03:41;;;;;;;8.63;3.40;;;;;;;6.56;94.00;102164.19;5047379;28;20047;-64
2021/10/10 06:06:07;;;;;;;11.05;4.30;;;;;;;6.61;94.14;102160.63;5048965;28;20120;-64
2021/10/10 06:08:32;;;;;;;7.53;3.88;;;;;;;6.60;94.19;102154.47;5048440;28;20040;-64
2021/10/10 06:10:58;;;;;;;11.30;3.90;;;;;;;6.64;94.09;102152.81;5048682;28;20071;-64
2021/10/10 06:13:23;;;;;;;10.23;4.32;;;;;;;6.61;94.30;102149.91;5049758;28;20115;-64
2021/10/10 06:15:50;;;;;;;10.35;4.20;;;;;;;6.65;94.32;102154.41;5047980;28;20036;-65
2021/10/10 06:18:15;;;;;;;8.98;4.30;;;;;;;6.59;94.52;102146.72;5046350;28;20040;-65
2021/10/10 06:20:41;;;;;;;8.18;4.03;;;;;;;6.59;95.12;102147.53;5049576;28;20032;-65
2021/10/10 06:23:06;;;;;;;9.23;3.45;;;;;;;6.57;95.24;102149.72;5050329;28;20041;-64
2021/10/10 06:25:32;;;;;;;9.55;3.97;;;;;;;6.64;95.37;102152.81;5049181;28;20033;-65
2021/10/10 06:27:57;;;;;;;9.18;3.78;;;;;;;6.64;95.53;102147.44;5048960;28;20048;-64
2021/10/10 06:30:40;;;;;;;6.75;3.65;;;;;;;6.72;95.60;102151.34;5046035;28;20036;-65
2021/10/10 06:33:06;;;;;;;6.85;3.90;;;;;;;6.70;95.96;102145.47;5042794;28;20036;-65
2021/10/10 06:35:31;;;;;;;9.30;3.92;;;;;;;6.76;96.12;102150.47;5044549;28;20891;-64
2021/10/10 06:37:57;;;;;;;12.15;4.78;;;;;;;6.74;96.43;102149.97;5047748;28;20036;-64
2021/10/10 06:40:23;;;;;;;10.52;4.40;;;;;;;6.81;96.40;102152.28;5048086;28;20116;-64
2021/10/10 06:42:48;;;;;;;10.43;3.88;;;;;;;6.83;96.77;102142.84;5047829;28;20102;-65
2021/10/10 06:45:14;;;;;;;13.57;4.38;;;;;;;6.85;96.89;102147.94;5045527;28;20048;-65
2021/10/10 06:47:40;;;;;;;9.63;4.18;;;;;;;6.98;96.46;102155.22;5047711;28;20032;-64
2021/10/10 06:50:06;;;;;;;10.90;4.20;;;;;;;6.95;96.57;102148.56;5040304;28;20037;-64
2021/10/10 06:52:32;;;;;;;7.35;4.03;;;;;;;7.01;96.70;102143.91;5049351;28;20063;-65
2021/10/10 06:54:57;;;;;;;7.13;3.35;;;;;;;7.07;97.02;102159.59;5049896;28;20052;-64
2021/10/10 06:57:25;;;;;;;10.77;4.28;;;;;;;7.10;97.12;102158.25;5048705;28;20037;-64
2021/10/10 06:59:50;;;;;;;10.13;4.43;;;;;;;7.14;97.35;102157.34;5047898;28;20048;-65
2021/10/10 07:02:16;;;;;;;8.50;4.10;;;;;;;7.21;97.35;102151.59;5046174;28;20042;-64
2021/10/10 07:04:41;;;;;;;9.30;4.07;;;;;;;7.18;98.11;102150.31;5047640;28;20064;-64
2021/10/10 07:07:07;;;;;;;9.48;4.28;;;;;;;7.18;98.45;102150.31;5047991;28;20087;-64
2021/10/10 07:09:32;;;;;;;9.98;4.28;;;;;;;7.30;97.99;102147.16;5045186;28;20040;-64
2021/10/10 07:11:58;;;;;;;8.05;4.05;;;;;;;7.38;98.07;102156.38;5041914;28;20048;-64
2021/10/10 07:14:23;;;;;;;8.65;3.92;;;;;;;7.40;98.50;102155.00;5045660;28;20025;-64
2021/10/10 07:16:48;;;;;;;10.85;4.68;;;;;;;7.52;98.41;102146.47;5044615;28;20033;-64
2021/10/10 07:19:21;;;;;;;12.07;4.53;;;;;;;7.67;97.86;102146.19;5046937;28;20033;-65
2021/10/10 07:27:05;;;;;;;11.07;4.72;;;;;;;8.04;96.86;102160.19;5048771;28;20045;-64
2021/10/10 07:29:33;;;;;;;10.43;4.60;;;;;;;8.09;96.82;102153.94;5041943;28;20082;-64
2021/10/10 07:31:59;;;;;;;9.40;4.32;;;;;;;8.10;96.73;102140.22;5047674;28;20033;-63
2021/10/10 07:34:24;;;;;;;10.85;4.70;;;;;;;8.20;96.33;102152.59;5044181;28;20449;-65
2021/10/10 07:36:50;;;;;;;10.68;4.72;;;;;;;8.34;96.16;102149.91;5046400;28;20059;-65
2021/10/10 07:39:15;;;;;;;10.32;3.85;;;;;;;8.45;96.22;102145.91;5040874;28;20470;-65
2021/10/10 07:41:41;;;;;;;11.52;4.65;;;;;;;8.70;95.91;102148.00;5046393;28;20071;-64
2021/10/10 07:44:11;;;;;;;10.35;4.40;;;;;;;8.94;95.84;102149.28;5045709;28;20045;-65
2021/10/10 07:46:38;;;;;;;13.73;4.85;;;;;;;9.19;94.65;102137.13;5044118;28;20037;-65
2021/10/10 07:49:05;;;;;;;10.90;4.70;;;;;;;9.41;92.45;102150.47;5041438;28;20041;-64
2021/10/10 07:51:30;;;;;;;12.43;4.70;;;;;;;9.54;90.37;102146.91;5040298;28;20020;-64
2021/10/10 07:53:56;;;;;;;12.05;4.95;;;;;;;9.69;90.14;102148.38;5045121;28;20044;-64
2021/10/10 07:56:22;;;;;;;10.20;4.70;;;;;;;9.88;88.33;102155.09;5041843;28;20033;-64
2021/10/10 07:58:47;;;;;;;11.25;4.63;;;;;;;9.97;87.03;102150.53;5035757;28;20107;-64
2021/10/10 08:01:13;;;;;;;9.93;4.45;;;;;;;10.11;85.76;102158.50;5036047;28;20036;-65
2021/10/10 08:03:38;;;;;;;9.93;4.20;;;;;;;10.16;84.38;102160.25;5046069;28;20136;-64
2021/10/10 08:06:04;;;;;;;12.60;4.43;;;;;;;10.17;83.11;102153.75;5039225;28;20048;-64
2021/10/10 08:08:29;;;;;;;10.77;4.60;;;;;;;10.31;82.99;102152.53;5043402;28;20121;-64
2021/10/10 08:10:55;;;;;;;9.77;4.50;;;;;;;10.37;83.48;102153.97;5045554;28;20134;-64
2021/10/10 08:13:20;;;;;;;10.00;4.50;;;;;;;10.47;83.18;102147.47;5043331;28;20036;-65
2021/10/10 08:15:46;;;;;;;9.35;4.63;;;;;;;10.57;83.28;102155.19;5043729;28;20438;-65
2021/10/10 08:18:11;;;;;;;11.60;4.85;;;;;;;10.67;82.78;102146.81;5039804;28;20509;-64
2021/10/10 08:20:38;;;;;;;7.28;3.92;;;;;;;10.81;82.68;102142.84;5035701;28;20379;-65
2021/10/10 08:23:05;;;;;;;11.90;4.93;;;;;;;10.87;82.38;102152.34;5048950;28;20141;-65
2021/10/10 08:25:32;;;;;;;11.60;4.72;;;;;;;10.99;82.24;102149.00;5047733;28;20033;-65
2021/10/10 08:27:58;;;;;;;10.50;4.18;;;;;;;11.09;81.74;102150.56;5049996;28;20040;-64
2021/10/10 08:30:25;;;;;;;9.20;3.97;;;;;;;11.12;81.15;102147.22;5051249;28;20017;-64
2021/10/10 08:32:52;;;;;;;10.63;4.90;;;;;;;11.28;80.69;102142.91;5049354;28;20535;-65
2021/10/10 08:35:18;;;;;;;10.90;4.07;;;;;;;11.42;80.03;102146.19;5051154;28;20044;-65
2021/10/10 08:37:43;;;;;;;8.77;4.45;;;;;;;11.39;79.41;102144.91;5041955;28;20064;-65
2021/10/10 08:40:10;;;;;;;11.32;4.13;;;;;;;11.45;80.30;102149.03;5052670;28;20080;-65
2021/10/10 08:42:38;;;;;;;8.75;4.50;;;;;;;11.56;80.73;102152.94;5044401;28;20025;-64
2021/10/10 08:45:08;;;;;;;8.68;4.10;;;;;;;11.68;78.09;102152.28;5044931;28;20536;-65
2021/10/10 08:47:40;;;;;;;11.50;5.35;;;;;;;11.77;77.24;102147.63;5047235;28;20491;-65
2021/10/10 08:50:16;;;;;;;8.98;4.30;;;;;;;11.81;77.18;102139.69;5046888;28;20455;-65
2021/10/10 08:52:46;;;;;;;11.68;4.50;;;;;;;11.88;77.03;102132.66;5046752;28;20123;-65
2021/10/10 08:55:13;;;;;;;16.63;4.95;;;;;;;12.02;75.44;102133.19;5049497;28;20052;-65
2021/10/10 08:57:39;;;;;;;11.15;4.18;;;;;;;12.14;76.31;102125.16;5046271;28;20087;-65
2021/10/10 09:00:10;;;;;;;7.85;4.50;;;;;;;12.48;76.58;102133.03;5050237;28;20067;-64
2021/10/10 09:02:38;;;;;;;9.60;4.28;;;;;;;12.64;73.01;102125.88;5050144;28;20029;-65
2021/10/10 09:05:10;;;;;;;9.55;4.22;;;;;;;12.80;72.95;102130.66;5047648;28;20053;-65
2021/10/10 09:07:36;;;;;;;10.43;4.32;;;;;;;12.96;72.25;102137.81;5046209;28;20047;-65
2021/10/10 09:10:22;;;;;;;10.82;4.28;;;;;;;13.16;71.73;102136.22;5043737;28;20033;-65
2021/10/10 09:12:48;;;;;;;11.13;4.82;;;;;;;13.10;68.40;102126.72;5047106;28;20505;-65
2021/10/10 09:15:21;;;;;;;9.77;4.68;;;;;;;13.09;68.98;102127.84;5046141;28;20451;-65
2021/10/10 09:17:57;;;;;;;10.38;4.60;;;;;;;13.17;66.89;102125.06;5048733;28;20028;-64
2021/10/10 09:20:40;;;;;;;9.52;4.07;;;;;;;13.06;68.03;102123.91;5043562;28;20064;-65
2021/10/10 09:23:09;;;;;;;8.68;3.88;;;;;;;13.08;69.74;102126.28;5041816;28;20475;-64
2021/10/10 09:25:35;;;;;;;9.57;4.25;;;;;;;13.22;70.21;102116.69;5044331;28;20029;-65
2021/10/10 09:28:19;;;;;;;11.77;4.22;;;;;;;13.23;69.66;102134.53;5049208;28;20441;-65
2021/10/10 09:30:50;;;;;;;10.30;4.65;;;;;;;13.27;69.81;102119.22;5047960;28;20494;-65
2021/10/10 09:33:16;;;;;;;14.63;4.45;;;;;;;13.26;68.39;102111.41;5050106;28;20033;-65
2021/10/10 09:35:42;;;;;;;7.95;3.65;;;;;;;13.27;65.53;102115.72;5043685;28;20047;-65
2021/10/10 09:38:23;;;;;;;11.18;4.30;;;;;;;13.31;68.60;102116.63;5048998;28;20518;-65
2021/10/10 09:40:59;;;;;;;8.10;4.47;;;;;;;13.31;66.91;102125.53;5046082;28;20051;-65
2021/10/10 09:43:24;;;;;;;11.02;4.30;;;;;;;13.44;64.65;102120.91;5038440;28;20045;-65
2021/10/10 09:45:53;;;;;;;10.38;3.67;;;;;;;13.51;64.37;102121.16;5064541;28;20111;-65
2021/10/10 09:48:30;;;;;;;11.85;4.03;;;;;;;13.68;64.05;102120.91;5044628;28;20051;-65
2021/10/10 09:50:56;;;;;;;9.10;3.75;;;;;;;13.74;63.23;102107.94;5048679;28;20020;-65
2021/10/10 09:53:32;;;;;;;10.48;4.28;;;;;;;13.71;61.08;102106.69;5036879;28;20068;-65
2021/10/10 09:56:06;;;;;;;8.63;4.18;;;;;;;13.74;62.42;102106.03;5041042;28;20055;-65
2021/10/10 09:58:37;;;;;;;9.80;3.90;;;;;;;13.78;63.75;102117.72;5047625;28;20047;-66
2021/10/10 10:01:18;;;;;;;8.02;3.70;;;;;;;13.81;62.90;102118.97;5048199;28;20060;-65
2021/10/10 10:04:03;;;;;;;10.43;4.07;;;;;;;13.94;62.01;102121.34;5049052;28;20037;-65
2021/10/10 10:06:33;;;;;;;8.07;3.63;;;;;;;13.91;62.74;102122.03;5045851;28;20029;-65
2021/10/10 10:09:06;;;;;;;9.88;4.45;;;;;;;13.80;63.32;102103.88;5046897;28;20033;-65
2021/10/10 10:11:43;;;;;;;9.52;3.85;;;;;;;13.64;62.94;102111.91;5047318;28;20033;-65
2021/10/10 10:14:10;;;;;;;10.95;4.68;;;;;;;13.53;63.52;102106.13;5043266;28;20520;-65
2021/10/10 10:16:44;;;;;;;9.00;4.35;;;;;;;13.44;63.81;102099.25;5041037;28;20024;-65
2021/10/10 10:19:13;;;;;;;11.35;4.85;;;;;;;13.43;64.16;102090.34;5044790;28;20116;-65
2021/10/10 10:21:39;;;;;;;8.05;4.20;;;;;;;13.31;65.65;102098.47;5048031;28;20041;-65
2021/10/10 10:24:09;;;;;;;8.02;4.60;;;;;;;13.37;65.88;102096.31;5043205;28;20044;-66
2021/10/10 10:26:35;;;;;;;8.63;4.47;;;;;;;13.25;65.93;102088.19;5046268;28;20037;-65
2021/10/10 10:29:07;;;;;;;8.00;4.15;;;;;;;13.19;67.07;102093.03;5045200;28;20040;-65
2021/10/10 10:31:35;;;;;;;9.10;4.10;;;;;;;13.21;67.14;102085.38;5039132;28;20112;-65
2021/10/10 10:34:25;;;;;;;11.85;4.78;;;;;;;13.13;69.19;102086.28;5047049;28;20047;-65
2021/10/10 10:36:51;;;;;;;11.27;4.78;;;;;;;13.16;69.22;102080.16;5043513;28;20029;-65
2021/10/10 10:39:47;;;;;;;9.90;4.50;;;;;;;13.16;69.61;102074.00;5045353;28;20039;-65
2021/10/10 10:42:22;;;;;;;12.00;4.78;;;;;;;13.21;68.33;102079.19;5046154;28;20120;-65
2021/10/10 10:44:48;;;;;;;11.43;4.25;;;;;;;13.09;69.69;102076.44;5043804;28;20477;-65
2021/10/10 10:47:17;;;;;;;10.32;4.43;;;;;;;13.05;69.82;102070.13;5045561;28;20044;-65
2021/10/10 10:49:58;;;;;;;8.07;4.00;;;;;;;13.05;71.18;102057.41;5050952;28;20455;-65
2021/10/10 10:52:31;;;;;;;;;;;;;;;12.98;71.15;102050.94;5045007;28;20044;-65
2021/10/10 10:55:05;;;;;;;7.88;3.72;;;;;;;13.16;71.51;102046.94;5043297;28;19994;-65
2021/10/10 10:57:36;;;;;;;8.15;4.50;;;;;;;13.17;71.39;102037.69;5038863;28;20030;-65
2021/10/10 11:00:07;;;;;;;;;;;;;;;13.17;71.46;102038.47;5045015;28;20025;-65
2021/10/10 11:02:52;;;;;;;11.02;3.88;;;;;;;13.33;71.77;102044.00;5044178;28;19920;-65
2021/10/10 11:05:36;;;;;;;7.68;4.43;;;;;;;13.48;71.19;102052.25;5044636;28;20891;-65
2021/10/10 11:08:04;;;;;;;10.75;4.65;;;;;;;13.57;72.18;102044.78;5044727;28;20043;-65
2021/10/10 11:10:31;;;;;;;8.43;4.13;;;;;;;13.69;71.55;102043.19;5045566;28;20044;-65
2021/10/10 11:13:17;;;;;;;9.63;4.32;;;;;;;13.83;71.24;102043.59;5037622;28;20442;-66
2021/10/10 11:15:54;;;;;;;9.50;4.35;;;;;;;13.90;70.17;102038.41;5032900;28;20041;-65
2021/10/10 11:18:26;;;;;;;8.73;4.38;;;;;;;14.02;70.24;102035.66;5038911;28;20051;-65
2021/10/10 11:20:54;;;;;;;9.52;4.88;;;;;;;14.10;70.78;102042.84;5043567;28;20037;-65
2021/10/10 11:23:21;;;;;;;8.65;4.32;;;;;;;14.16;69.96;102057.75;5041608;28;20140;-65
2021/10/10 11:25:49;;;;;;;10.07;4.43;;;;;;;14.32;71.24;102051.25;5042809;28;20040;-66
2021/10/10 11:28:19;;;;;;;9.57;5.35;;;;;;;14.37;71.32;102052.94;5045081;28;20028;-66
2021/10/10 11:30:45;;;;;;;8.23;4.30;;;;;;;14.34;70.85;102062.53;5050053;28;20086;-65
2021/10/10 11:33:13;;;;;;;12.27;4.93;;;;;;;14.39;69.46;102058.81;5047536;28;20045;-63
2021/10/10 11:35:42;;;;;;;10.50;4.57;;;;;;;14.35;68.90;102044.38;5049176;28;20476;-65
2021/10/10 11:38:09;;;;;;;9.02;4.90;;;;;;;14.20;68.79;102034.25;5043652;28;20174;-63